createdAt,value
2018-11-14T00:00:03.091Z,6.93
2018-11-14T00:02:31.627Z,9.43
2018-11-14T00:05:00.158Z,10.32
2018-11-14T00:07:28.417Z,8.67
2018-11-14T00:09:56.731Z,6.70
2018-11-14T00:12:25.177Z,9.57
2018-11-14T00:14:53.916Z,9.27
2018-11-14T00:17:22.211Z,9.13
2018-11-14T00:19:51.015Z,7.25
2018-11-14T00:22:19.911Z,8.97
2018-11-14T00:24:48.455Z,9.40
2018-11-14T00:27:17.212Z,7.40
2018-11-14T00:29:46.044Z,8.98
2018-11-14T00:32:14.555Z,6.67
2018-11-14T00:34:42.884Z,6.90
2018-11-14T00:37:11.165Z,11.37
2018-11-14T00:39:39.715Z,8.75
2018-11-14T00:42:08.584Z,6.00
2018-11-14T00:44:36.952Z,6.27
2018-11-14T00:47:06.068Z,7.50
2018-11-14T00:49:34.521Z,5.93
2018-11-14T00:52:03.023Z,8.33
2018-11-14T00:54:31.299Z,9.40
2018-11-14T00:56:59.876Z,7.23
2018-11-14T00:59:28.111Z,7.23
2018-11-14T01:01:56.482Z,9.87
2018-11-14T01:04:24.804Z,7.60
2018-11-14T01:06:53.128Z,6.60
2018-11-14T01:09:21.584Z,7.60
2018-11-14T01:11:49.826Z,8.18
2018-11-14T01:14:18.267Z,10.23
2018-11-14T01:16:47.596Z,10.93
2018-11-14T01:19:16.100Z,5.30
2018-11-14T01:21:45.061Z,6.40
2018-11-14T01:24:13.710Z,5.57
2018-11-14T01:26:41.952Z,6.57
2018-11-14T01:29:10.530Z,9.20
2018-11-14T01:31:38.827Z,6.90
2018-11-14T01:34:07.106Z,7.17
2018-11-14T01:36:35.819Z,9.17
2018-11-14T01:39:06.688Z,7.57
2018-11-14T01:41:35.214Z,8.40
2018-11-14T01:44:03.694Z,6.20
2018-11-14T01:46:32.188Z,10.77
2018-11-14T01:49:00.444Z,5.90
2018-11-14T01:51:28.967Z,11.63
2018-11-14T01:53:57.256Z,5.03
2018-11-14T01:56:25.788Z,10.28
2018-11-14T01:58:54.320Z,11.33
2018-11-14T02:01:22.596Z,7.73
2018-11-14T02:03:50.836Z,8.23
2018-11-14T02:06:19.483Z,7.13
2018-11-14T02:08:48.591Z,6.85
2018-11-14T02:11:16.828Z,9.07
2018-11-14T02:13:45.072Z,5.50
2018-11-14T02:16:13.935Z,7.33
2018-11-14T02:18:42.185Z,7.33
2018-11-14T02:21:10.692Z,7.80
2018-11-14T02:23:39.262Z,12.73
2018-11-14T02:26:07.627Z,5.80
2018-11-14T02:28:35.891Z,4.73
2018-11-14T02:31:04.775Z,5.80
2018-11-14T02:33:33.024Z,7.43
2018-11-14T02:36:01.589Z,8.90
2018-11-14T02:38:30.246Z,6.17
2018-11-14T02:40:58.808Z,5.07
2018-11-14T02:43:27.083Z,10.70
2018-11-14T02:45:55.957Z,6.70
2018-11-14T02:48:24.305Z,5.63
2018-11-14T02:51:03.744Z,6.23
2018-11-14T02:53:31.995Z,4.23
2018-11-14T02:56:05.911Z,6.70
2018-11-14T02:58:34.523Z,7.73
2018-11-14T03:01:02.768Z,5.73
2018-11-14T03:03:31.351Z,6.50
2018-11-14T03:06:00.203Z,5.03
2018-11-14T03:08:28.444Z,6.07
2018-11-14T03:10:56.737Z,7.17
2018-11-14T03:13:25.349Z,4.83
2018-11-14T03:15:54.191Z,5.07
2018-11-14T03:18:22.935Z,5.23
2018-11-14T03:20:51.507Z,6.20
2018-11-14T03:23:20.355Z,5.33
2018-11-14T03:25:48.880Z,6.13
2018-11-14T03:28:17.448Z,5.90
2018-11-14T03:30:45.691Z,7.63
2018-11-14T03:33:14.209Z,5.28
2018-11-14T03:35:47.950Z,6.00
2018-11-14T03:38:16.241Z,5.30
2018-11-14T03:40:45.069Z,7.47
2018-11-14T03:43:13.365Z,5.00
2018-11-14T03:45:41.801Z,6.10
2018-11-14T03:48:10.105Z,5.10
2018-11-14T03:50:38.682Z,5.80
2018-11-14T03:53:07.048Z,5.53
2018-11-14T03:55:35.751Z,6.47
2018-11-14T03:58:04.215Z,5.60
2018-11-14T04:00:32.900Z,5.35
2018-11-14T04:03:01.703Z,6.40
2018-11-14T04:05:30.576Z,6.62
2018-11-14T04:07:59.359Z,4.83
2018-11-14T04:10:27.709Z,5.30
2018-11-14T04:12:55.964Z,6.20
2018-11-14T04:15:24.362Z,5.10
2018-11-14T04:17:52.909Z,11.07
2018-11-14T04:20:21.547Z,5.67
2018-11-14T04:22:49.801Z,5.90
2018-11-14T04:25:19.363Z,7.60
2018-11-14T04:27:48.592Z,8.17
2018-11-14T04:30:18.483Z,6.23
2018-11-14T04:32:46.898Z,14.10
2018-11-14T04:35:16.494Z,6.60
2018-11-14T04:37:44.959Z,6.60
2018-11-14T04:40:16.461Z,5.73
2018-11-14T04:42:45.048Z,5.10
2018-11-14T04:45:14.984Z,5.47
2018-11-14T04:47:43.920Z,6.60
2018-11-14T04:50:15.184Z,7.63
2018-11-14T04:52:44.937Z,5.83
2018-11-14T04:55:14.260Z,4.47
2018-11-14T04:57:43.605Z,6.17
2018-11-14T05:00:12.843Z,5.43
2018-11-14T05:02:42.425Z,7.13
2018-11-14T05:05:13.361Z,8.40
2018-11-14T05:07:41.931Z,9.00
2018-11-14T05:10:12.840Z,5.55
2018-11-14T05:12:41.695Z,5.65
2018-11-14T05:15:12.080Z,5.45
2018-11-14T05:17:40.357Z,5.90
2018-11-14T05:20:10.607Z,7.67
2018-11-14T05:22:39.237Z,4.40
2018-11-14T05:25:07.594Z,7.27
2018-11-14T05:27:36.159Z,5.17
2018-11-14T05:30:05.557Z,4.30
2018-11-14T05:32:34.032Z,6.73
2018-11-14T05:35:02.298Z,6.53
2018-11-14T05:37:30.899Z,4.93
2018-11-14T05:39:59.226Z,4.73
2018-11-14T05:42:27.823Z,7.70
2018-11-14T05:44:56.076Z,4.57
2018-11-14T05:47:24.696Z,5.70
2018-11-14T05:49:53.066Z,5.10
2018-11-14T05:52:21.320Z,7.03
2018-11-14T05:54:49.672Z,5.07
2018-11-14T05:57:18.071Z,4.87
2018-11-14T05:59:46.444Z,9.07
2018-11-14T06:02:15.022Z,7.97
2018-11-14T06:04:43.480Z,6.33
2018-11-14T06:07:12.529Z,11.70
2018-11-14T06:09:41.150Z,13.60
2018-11-14T06:12:09.693Z,8.13
2018-11-14T06:14:38.499Z,8.23
2018-11-14T06:17:07.498Z,11.43
2018-11-14T06:19:35.761Z,13.13
2018-11-14T06:22:05.043Z,17.00
2018-11-14T06:24:33.436Z,11.50
2018-11-14T06:27:01.693Z,10.37
2018-11-14T06:29:29.945Z,9.80
2018-11-14T06:31:58.521Z,24.50
2018-11-14T06:34:27.111Z,32.30
2018-11-14T06:36:55.371Z,28.27
2018-11-14T06:39:23.640Z,21.20
2018-11-14T06:41:52.181Z,11.40
2018-11-14T06:44:20.704Z,53.27
2018-11-14T06:46:48.980Z,41.70
2018-11-14T06:49:17.228Z,30.20
2018-11-14T06:51:45.789Z,52.07
2018-11-14T06:54:14.368Z,24.75
2018-11-14T06:56:43.022Z,51.68
2018-11-14T06:59:11.381Z,32.10
2018-11-14T07:01:39.799Z,37.67
2018-11-14T07:04:08.344Z,39.18
2018-11-14T07:06:36.870Z,29.07
2018-11-14T07:09:08.815Z,26.37
2018-11-14T07:11:37.492Z,40.13
2018-11-14T07:14:06.400Z,42.90
2018-11-14T07:16:34.849Z,22.50
2018-11-14T07:19:03.391Z,73.70
2018-11-14T07:21:31.642Z,49.40
2018-11-14T07:24:00.066Z,60.97
2018-11-14T07:26:28.859Z,40.37
2018-11-14T07:29:03.771Z,122.47
2018-11-14T07:31:32.019Z,76.20
2018-11-14T07:34:00.287Z,119.73
2018-11-14T07:36:29.056Z,72.47
2018-11-14T07:38:57.533Z,45.37
2018-11-14T07:41:29.299Z,56.87
2018-11-14T07:43:58.508Z,39.90
2018-11-14T07:46:28.263Z,46.30
2018-11-14T07:48:56.655Z,41.67
2018-11-14T07:51:25.200Z,51.37
2018-11-14T07:53:53.463Z,87.53
2018-11-14T07:56:22.009Z,29.98
2018-11-14T07:58:50.537Z,39.35
2018-11-14T08:01:19.123Z,38.70
2018-11-14T08:03:47.816Z,54.17
2018-11-14T08:06:16.747Z,30.80
2018-11-14T08:08:45.388Z,33.63
2018-11-14T08:11:13.665Z,54.60
2018-11-14T08:13:43.652Z,49.13
2018-11-14T08:16:12.183Z,71.80
2018-11-14T08:18:40.509Z,68.00
2018-11-14T08:21:09.100Z,46.87
2018-11-14T08:23:37.648Z,61.50
2018-11-14T08:26:06.248Z,56.67
2018-11-14T08:28:35.176Z,54.77
2018-11-14T08:31:04.046Z,45.23
2018-11-14T08:33:32.614Z,33.90
2018-11-14T08:36:01.220Z,45.10
2018-11-14T08:38:30.292Z,53.90
2018-11-14T08:40:58.832Z,48.90
2018-11-14T08:43:27.356Z,27.10
2018-11-14T08:45:55.923Z,29.63
2018-11-14T08:48:24.504Z,46.27
2018-11-14T08:50:52.772Z,76.77
2018-11-14T08:53:21.055Z,28.00
2018-11-14T08:55:49.444Z,34.47
2018-11-14T08:58:17.861Z,44.50
2018-11-14T09:00:46.964Z,47.00
2018-11-14T09:03:15.763Z,25.68
2018-11-14T09:05:44.641Z,30.00
2018-11-14T09:08:12.947Z,47.03
2018-11-14T09:10:42.122Z,25.10
2018-11-14T09:13:13.705Z,36.37
2018-11-14T09:15:42.642Z,35.97
2018-11-14T09:18:11.487Z,33.50
2018-11-14T09:20:40.123Z,36.63
2018-11-14T09:23:08.783Z,33.28
2018-11-14T09:25:37.576Z,30.53
2018-11-14T09:28:06.396Z,60.83
2018-11-14T09:30:34.760Z,22.67
2018-11-14T09:33:04.883Z,23.30
2018-11-14T09:35:33.575Z,25.70
2018-11-14T09:38:02.447Z,69.75
2018-11-14T09:40:31.611Z,21.05
2018-11-14T09:43:00.135Z,23.70
2018-11-14T09:45:30.072Z,32.17
2018-11-14T09:47:58.422Z,28.83
2018-11-14T09:50:30.187Z,29.87
2018-11-14T09:52:59.942Z,19.43
2018-11-14T09:55:28.591Z,18.52
2018-11-14T09:57:57.560Z,22.57
2018-11-14T10:00:28.091Z,22.43
2018-11-14T10:02:58.663Z,26.27
2018-11-14T10:05:27.211Z,21.07
2018-11-14T10:07:56.057Z,24.52
2018-11-14T10:10:24.898Z,24.20
2018-11-14T10:12:53.291Z,21.37
2018-11-14T10:15:23.182Z,25.13
2018-11-14T10:17:52.232Z,25.70
2018-11-14T10:20:21.811Z,27.13
2018-11-14T10:22:50.361Z,35.07
2018-11-14T10:25:19.428Z,29.35
2018-11-14T10:27:49.272Z,23.85
2018-11-14T10:30:22.669Z,22.50
2018-11-14T10:32:52.014Z,26.05
2018-11-14T10:35:20.705Z,25.17
2018-11-14T10:37:49.160Z,27.00
2018-11-14T10:40:19.711Z,23.40
2018-11-14T10:42:48.570Z,22.07
2018-11-14T10:45:18.856Z,24.53
2018-11-14T10:47:47.478Z,24.57
2018-11-14T10:50:18.286Z,21.33
2018-11-14T10:52:46.831Z,22.20
2018-11-14T10:55:16.131Z,22.82
2018-11-14T10:57:44.703Z,21.20
2018-11-14T11:00:22.004Z,31.15
2018-11-14T11:02:56.660Z,24.17
2018-11-14T11:05:31.051Z,25.47
2018-11-14T11:08:04.987Z,23.93
2018-11-14T11:10:39.074Z,23.57
2018-11-14T11:13:08.637Z,31.53
2018-11-14T11:15:42.375Z,20.93
2018-11-14T11:18:12.880Z,22.87
2018-11-14T11:20:41.468Z,22.45
2018-11-14T11:23:09.894Z,25.53
2018-11-14T11:25:38.493Z,21.90
2018-11-14T11:28:07.451Z,33.70
2018-11-14T11:30:36.576Z,29.43
2018-11-14T11:33:05.995Z,25.10
2018-11-14T11:35:34.504Z,24.93
2018-11-14T11:38:03.212Z,21.73
2018-11-14T11:40:32.197Z,22.63
2018-11-14T11:43:00.785Z,20.97
2018-11-14T11:45:29.943Z,25.00
2018-11-14T11:47:58.541Z,18.45
2018-11-14T11:50:26.939Z,23.63
2018-11-14T11:52:55.760Z,21.42
2018-11-14T11:55:24.616Z,19.83
2018-11-14T11:57:53.035Z,24.80
2018-11-14T12:00:21.719Z,23.60
2018-11-14T12:02:50.191Z,28.43
2018-11-14T12:05:18.448Z,24.17
2018-11-14T12:07:46.884Z,28.50
2018-11-14T12:10:15.864Z,22.63
2018-11-14T12:12:45.050Z,24.70
2018-11-14T12:15:14.411Z,25.12
2018-11-14T12:17:43.463Z,26.63
2018-11-14T12:20:13.411Z,18.70
2018-11-14T12:22:42.176Z,20.37
2018-11-14T12:25:13.050Z,20.60
2018-11-14T12:27:41.468Z,24.30
2018-11-14T12:30:12.666Z,23.05
2018-11-14T12:32:41.443Z,22.70
2018-11-14T12:35:11.297Z,21.47
2018-11-14T12:37:40.159Z,30.82
2018-11-14T12:40:09.757Z,26.03
2018-11-14T12:42:38.419Z,23.83
2018-11-14T12:45:08.323Z,28.33
2018-11-14T12:47:36.656Z,25.03
2018-11-14T12:50:05.918Z,26.33
2018-11-14T12:52:34.297Z,27.43
2018-11-14T12:55:02.713Z,27.50
2018-11-14T12:57:32.391Z,26.17
2018-11-14T13:00:00.898Z,25.17
2018-11-14T13:02:29.559Z,28.37
2018-11-14T13:04:58.213Z,28.00
2018-11-14T13:07:27.319Z,26.20
2018-11-14T13:09:55.839Z,25.03
2018-11-14T13:12:24.399Z,27.97
2018-11-14T13:14:53.135Z,21.90
2018-11-14T13:17:21.548Z,24.70
2018-11-14T13:19:50.128Z,26.52
2018-11-14T13:22:19.905Z,26.27
2018-11-14T13:24:48.481Z,24.43
2018-11-14T13:27:16.883Z,24.27
2018-11-14T13:29:45.347Z,22.70
2018-11-14T13:32:13.600Z,21.37
2018-11-14T13:34:42.072Z,23.70
2018-11-14T13:37:10.713Z,25.17
2018-11-14T13:39:40.001Z,25.43
2018-11-14T13:42:08.530Z,24.43
2018-11-14T13:44:37.083Z,24.63
2018-11-14T13:47:05.599Z,31.57
2018-11-14T13:49:34.424Z,27.60
2018-11-14T13:52:03.148Z,27.52
2018-11-14T13:54:31.665Z,26.43
2018-11-14T13:57:00.534Z,24.60
2018-11-14T13:59:28.919Z,30.53
2018-11-14T14:01:57.177Z,26.07
2018-11-14T14:04:25.661Z,30.27
2018-11-14T14:06:53.985Z,32.40
2018-11-14T14:09:22.887Z,32.03
2018-11-14T14:11:51.600Z,32.83
2018-11-14T14:14:20.374Z,31.93
2018-11-14T14:16:48.959Z,35.00
2018-11-14T14:19:18.823Z,30.05
2018-11-14T14:21:47.617Z,28.47
2018-11-14T14:24:16.119Z,28.87
2018-11-14T14:26:44.943Z,32.27
2018-11-14T14:29:13.482Z,34.33
2018-11-14T14:31:41.843Z,33.93
2018-11-14T14:34:10.124Z,41.40
2018-11-14T14:36:38.635Z,36.00
2018-11-14T14:39:08.771Z,37.03
2018-11-14T14:41:37.790Z,35.57
2018-11-14T14:44:06.524Z,33.00
2018-11-14T14:46:35.471Z,27.00
2018-11-14T14:49:04.121Z,32.83
2018-11-14T14:51:32.699Z,35.20
2018-11-14T14:54:01.568Z,34.93
2018-11-14T14:56:30.313Z,31.87
2018-11-14T14:58:59.441Z,33.92
2018-11-14T15:01:28.044Z,34.63
2018-11-14T15:03:56.631Z,42.43
2018-11-14T15:06:25.445Z,41.10
2018-11-14T15:08:54.477Z,37.67
2018-11-14T15:11:23.249Z,41.93
2018-11-14T15:13:52.122Z,48.07
2018-11-14T15:16:20.656Z,49.15
2018-11-14T15:18:48.973Z,50.67
2018-11-14T15:21:17.334Z,49.93
2018-11-14T15:23:45.602Z,46.87
2018-11-14T15:26:14.173Z,47.55
2018-11-14T15:28:42.728Z,43.90
2018-11-14T15:31:11.152Z,43.43
2018-11-14T15:33:39.452Z,41.73
2018-11-14T15:36:08.128Z,41.07
2018-11-14T15:38:36.572Z,44.00
2018-11-14T15:41:05.345Z,44.87
2018-11-14T15:43:33.947Z,50.77
2018-11-14T15:46:02.696Z,42.50
2018-11-14T15:48:31.226Z,39.33
2018-11-14T15:50:59.840Z,48.17
2018-11-14T15:53:28.810Z,41.88
2018-11-14T15:55:57.069Z,40.83
2018-11-14T15:58:25.950Z,42.47
2018-11-14T16:00:54.608Z,37.77
2018-11-14T16:03:23.156Z,38.53
2018-11-14T16:05:51.629Z,43.10
2018-11-14T16:08:19.898Z,39.43
2018-11-14T16:10:48.436Z,38.67
2018-11-14T16:13:17.004Z,43.30
2018-11-14T16:15:45.437Z,38.03
2018-11-14T16:18:13.781Z,40.47
2018-11-14T16:20:42.495Z,34.10
2018-11-14T16:23:10.815Z,45.10
2018-11-14T16:25:39.392Z,41.33
2018-11-14T16:28:07.993Z,39.77
2018-11-14T16:30:37.264Z,39.43
2018-11-14T16:33:07.135Z,39.00
2018-11-14T16:35:35.715Z,35.90
2018-11-14T16:38:04.292Z,43.20
2018-11-14T16:40:33.848Z,43.97
2018-11-14T16:43:04.314Z,41.60
2018-11-14T16:45:33.191Z,49.47
2018-11-14T16:48:01.867Z,42.97
2018-11-14T16:50:30.501Z,41.73
2018-11-14T16:52:59.120Z,49.00
2018-11-14T16:55:27.774Z,41.27
2018-11-14T16:57:56.816Z,60.63
2018-11-14T17:00:26.604Z,48.02
2018-11-14T17:02:54.888Z,57.30
2018-11-14T17:05:24.189Z,49.83
2018-11-14T17:07:52.998Z,46.40
2018-11-14T17:10:22.271Z,48.33
2018-11-14T17:12:52.357Z,50.83
2018-11-14T17:15:21.981Z,45.13
2018-11-14T17:17:50.682Z,49.23
2018-11-14T17:20:19.791Z,51.53
2018-11-14T17:22:49.368Z,58.38
2018-11-14T17:25:18.350Z,65.33
2018-11-14T17:27:47.411Z,55.70
2018-11-14T17:30:17.205Z,49.63
2018-11-14T17:32:45.865Z,52.67
2018-11-14T17:35:15.072Z,62.73
2018-11-14T17:37:44.156Z,55.87
2018-11-14T17:40:17.035Z,51.70
2018-11-14T17:42:47.304Z,45.48
2018-11-14T17:45:18.681Z,42.15
2018-11-14T17:47:48.216Z,48.83
2018-11-14T17:50:20.754Z,45.10
2018-11-14T17:52:50.356Z,38.63
2018-11-14T17:55:19.959Z,48.17
2018-11-14T17:57:49.166Z,38.70
2018-11-14T18:00:19.045Z,41.57
2018-11-14T18:02:47.891Z,50.07
2018-11-14T18:05:17.620Z,49.03
2018-11-14T18:07:46.937Z,52.93
2018-11-14T18:10:17.031Z,46.10
2018-11-14T18:12:46.264Z,50.37
2018-11-14T18:15:14.543Z,48.87
2018-11-14T18:17:43.043Z,51.77
2018-11-14T18:20:15.535Z,45.70
2018-11-14T18:22:44.599Z,49.20
2018-11-14T18:25:13.670Z,50.10
2018-11-14T18:27:42.008Z,44.33
2018-11-14T18:30:13.118Z,50.63
2018-11-14T18:32:41.798Z,46.10
2018-11-14T18:35:13.914Z,54.30
2018-11-14T18:37:43.004Z,51.43
2018-11-14T18:40:13.519Z,53.50
2018-11-14T18:42:41.915Z,57.10
2018-11-14T18:45:15.920Z,73.37
2018-11-14T18:47:44.948Z,62.93
2018-11-14T18:50:14.647Z,51.20
2018-11-14T18:52:43.314Z,53.77
2018-11-14T18:55:13.315Z,52.50
2018-11-14T18:57:41.861Z,55.73
2018-11-14T19:00:16.297Z,57.23
2018-11-14T19:02:44.960Z,47.10
2018-11-14T19:05:14.148Z,60.93
2018-11-14T19:07:43.157Z,51.50
2018-11-14T19:10:12.765Z,56.77
2018-11-14T19:12:42.062Z,41.20
2018-11-14T19:15:13.196Z,52.07
2018-11-14T19:17:41.496Z,43.03
2018-11-14T19:20:12.279Z,49.93
2018-11-14T19:22:41.281Z,49.07
2018-11-14T19:25:11.789Z,44.63
2018-11-14T19:27:40.690Z,54.80
2018-11-14T19:30:12.133Z,49.43
2018-11-14T19:32:40.815Z,50.12
2018-11-14T19:35:10.947Z,47.83
2018-11-14T19:37:41.524Z,56.50
2018-11-14T19:40:12.679Z,50.63
2018-11-14T19:42:41.403Z,60.10
2018-11-14T19:45:12.800Z,59.43
2018-11-14T19:47:41.867Z,66.20
2018-11-14T19:50:12.270Z,63.60
2018-11-14T19:52:41.183Z,76.40
2018-11-14T19:55:11.383Z,65.63
2018-11-14T19:57:40.639Z,56.30
2018-11-14T20:00:20.467Z,62.73
2018-11-14T20:02:48.805Z,60.90
2018-11-14T20:05:17.877Z,71.27
2018-11-14T20:07:46.344Z,65.47
2018-11-14T20:10:16.341Z,62.67
2018-11-14T20:12:45.720Z,64.20
2018-11-14T20:15:15.828Z,74.70
2018-11-14T20:17:44.911Z,71.67
2018-11-14T20:20:15.040Z,77.43
2018-11-14T20:22:44.049Z,71.53
2018-11-14T20:25:12.652Z,64.13
2018-11-14T20:27:41.212Z,66.47
2018-11-14T20:30:13.243Z,70.70
2018-11-14T20:32:41.891Z,71.90
2018-11-14T20:35:11.925Z,80.57
2018-11-14T20:37:40.612Z,79.90
2018-11-14T20:40:10.945Z,69.15
2018-11-14T20:42:39.475Z,82.87
2018-11-14T20:45:10.465Z,75.70
2018-11-14T20:47:38.755Z,62.13
2018-11-14T20:50:09.576Z,56.43
2018-11-14T20:52:38.075Z,41.73
2018-11-14T20:55:07.555Z,39.90
2018-11-14T20:57:36.095Z,32.70
2018-11-14T21:00:04.922Z,38.20
2018-11-14T21:02:33.471Z,35.38
2018-11-14T21:05:01.864Z,39.43
2018-11-14T21:07:30.607Z,48.07
2018-11-14T21:09:59.072Z,35.93
2018-11-14T21:12:27.360Z,34.97
2018-11-14T21:14:55.944Z,47.33
2018-11-14T21:17:24.546Z,40.20
2018-11-14T21:19:52.981Z,43.63
2018-11-14T21:22:21.300Z,33.20
2018-11-14T21:24:49.728Z,38.37
2018-11-14T21:27:19.496Z,34.57
2018-11-14T21:29:48.135Z,36.87
2018-11-14T21:32:16.671Z,39.33
2018-11-14T21:34:44.915Z,39.03
2018-11-14T21:37:14.258Z,39.43
2018-11-14T21:39:42.581Z,41.40
2018-11-14T21:42:10.864Z,35.40
2018-11-14T21:44:39.140Z,37.77
2018-11-14T21:47:07.388Z,44.43
2018-11-14T21:49:35.694Z,36.83
2018-11-14T21:52:04.238Z,37.87
2018-11-14T21:54:32.771Z,43.27
2018-11-14T21:57:01.647Z,36.53
2018-11-14T21:59:30.283Z,37.40
2018-11-14T22:01:58.862Z,47.88
2018-11-14T22:04:27.164Z,48.10
2018-11-14T22:06:55.712Z,43.20
2018-11-14T22:09:23.970Z,37.50
2018-11-14T22:11:52.272Z,40.53
2018-11-14T22:14:20.731Z,40.50
2018-11-14T22:16:49.283Z,44.23
2018-11-14T22:19:17.598Z,47.40
2018-11-14T22:21:46.400Z,37.87
2018-11-14T22:24:14.644Z,48.43
2018-11-14T22:26:43.528Z,51.60
2018-11-14T22:29:12.252Z,47.97
2018-11-14T22:31:40.817Z,51.93
2018-11-14T22:34:09.103Z,38.03
2018-11-14T22:36:37.396Z,43.80
2018-11-14T22:39:08.324Z,46.13
2018-11-14T22:41:36.792Z,47.27
2018-11-14T22:44:05.403Z,58.07
2018-11-14T22:46:34.205Z,54.47
2018-11-14T22:49:03.015Z,58.00
2018-11-14T22:51:31.576Z,48.17
2018-11-14T22:53:59.868Z,49.03
2018-11-14T22:56:29.232Z,54.93
2018-11-14T22:58:57.509Z,52.27
2018-11-14T23:01:25.822Z,55.53
2018-11-14T23:03:54.195Z,47.00
2018-11-14T23:06:22.541Z,53.33
2018-11-14T23:08:50.807Z,49.27
2018-11-14T23:11:19.193Z,54.40
2018-11-14T23:13:47.761Z,58.63
2018-11-14T23:16:16.284Z,71.12
2018-11-14T23:18:44.544Z,56.37
2018-11-14T23:21:12.807Z,62.37
2018-11-14T23:23:41.333Z,58.70
2018-11-14T23:26:09.863Z,49.20
2018-11-14T23:28:38.228Z,54.60
2018-11-14T23:31:06.908Z,48.23
2018-11-14T23:33:35.432Z,49.40
2018-11-14T23:36:04.042Z,60.27
2018-11-14T23:38:32.574Z,48.33
2018-11-14T23:41:00.839Z,47.43
2018-11-14T23:43:29.367Z,53.60
2018-11-14T23:45:57.744Z,54.90
2018-11-14T23:48:26.295Z,45.43
2018-11-14T23:50:54.840Z,57.85
2018-11-14T23:53:23.404Z,58.90
2018-11-14T23:55:51.648Z,49.83
2018-11-14T23:58:19.933Z,58.43
